createdAt,value
2023-01-13T00:02:16.304Z,8.00
2023-01-13T00:04:43.163Z,8.00
2023-01-13T00:07:10.018Z,8.00
2023-01-13T00:09:36.765Z,8.00
2023-01-13T00:12:03.512Z,7.90
2023-01-13T00:14:33.404Z,7.90
2023-01-13T00:17:00.193Z,7.90
2023-01-13T00:19:26.877Z,7.90
2023-01-13T00:21:53.620Z,7.90
2023-01-13T00:24:20.325Z,7.90
2023-01-13T00:26:47.160Z,7.90
2023-01-13T00:29:13.946Z,7.90
2023-01-13T00:31:41.394Z,7.90
2023-01-13T00:34:08.099Z,7.80
2023-01-13T00:36:34.947Z,7.90
2023-01-13T00:39:01.774Z,7.80
2023-01-13T00:41:29.206Z,7.80
2023-01-13T00:43:55.985Z,7.80
2023-01-13T00:46:23.287Z,7.80
2023-01-13T00:48:51.586Z,7.80
2023-01-13T00:51:18.392Z,7.80
2023-01-13T00:53:45.111Z,7.80
2023-01-13T00:56:14.386Z,7.80
2023-01-13T00:58:41.142Z,7.80
2023-01-13T01:01:08.111Z,7.80
2023-01-13T01:03:34.909Z,7.70
2023-01-13T01:06:01.650Z,7.70
2023-01-13T01:08:28.409Z,7.70
2023-01-13T01:10:55.127Z,7.70
2023-01-13T01:13:21.842Z,7.60
2023-01-13T01:15:48.726Z,7.60
2023-01-13T01:18:15.453Z,7.60
2023-01-13T01:20:42.160Z,7.60
2023-01-13T01:23:08.965Z,7.60
2023-01-13T01:25:35.741Z,7.60
2023-01-13T01:28:02.457Z,7.60
2023-01-13T01:30:29.176Z,7.60
2023-01-13T01:32:57.333Z,7.60
2023-01-13T01:35:24.069Z,7.60
2023-01-13T01:37:50.787Z,7.50
2023-01-13T01:40:17.495Z,7.50
2023-01-13T01:43:02.835Z,7.50
2023-01-13T01:45:30.642Z,7.50
2023-01-13T01:47:57.407Z,7.50
2023-01-13T01:50:24.163Z,7.50
2023-01-13T01:52:50.909Z,7.50
2023-01-13T01:55:17.616Z,7.50
2023-01-13T01:57:44.334Z,7.50
2023-01-13T02:00:11.069Z,7.40
2023-01-13T02:02:40.733Z,7.40
2023-01-13T02:05:07.523Z,7.40
2023-01-13T02:07:34.275Z,7.40
2023-01-13T02:10:01.004Z,7.40
2023-01-13T02:12:30.554Z,7.40
2023-01-13T02:14:57.294Z,7.40
2023-01-13T02:17:24.018Z,7.40
2023-01-13T02:19:50.746Z,7.40
2023-01-13T02:22:17.482Z,7.40
2023-01-13T02:24:56.636Z,7.40
2023-01-13T02:27:23.736Z,7.40
2023-01-13T02:30:09.494Z,7.40
2023-01-13T02:32:36.235Z,7.40
2023-01-13T02:35:03.259Z,7.30
2023-01-13T02:37:29.962Z,7.40
2023-01-13T02:39:56.689Z,7.30
2023-01-13T02:42:42.227Z,7.30
2023-01-13T02:45:09.021Z,7.30
2023-01-13T02:47:35.727Z,7.30
2023-01-13T02:50:02.455Z,7.30
2023-01-13T02:52:29.195Z,7.30
2023-01-13T02:54:55.921Z,7.30
2023-01-13T02:57:22.691Z,7.30
2023-01-13T02:59:49.429Z,7.30
2023-01-13T03:02:16.367Z,7.30
2023-01-13T03:04:43.205Z,7.30
2023-01-13T03:07:09.891Z,7.30
2023-01-13T03:09:36.568Z,7.30
2023-01-13T03:12:03.381Z,7.30
2023-01-13T03:14:30.083Z,7.30
2023-01-13T03:16:56.778Z,7.30
2023-01-13T03:19:24.869Z,7.30
2023-01-13T03:21:51.600Z,7.30
2023-01-13T03:24:18.348Z,7.30
2023-01-13T03:26:45.038Z,7.30
2023-01-13T03:29:11.948Z,7.30
2023-01-13T03:31:38.750Z,7.30
2023-01-13T03:34:05.617Z,7.30
2023-01-13T03:36:32.359Z,7.30
2023-01-13T03:38:59.113Z,7.30
2023-01-13T03:41:25.809Z,7.30
2023-01-13T03:44:28.011Z,7.30
2023-01-13T03:46:54.709Z,7.30
2023-01-13T03:49:21.425Z,7.30
2023-01-13T03:51:48.207Z,7.30
2023-01-13T03:54:15.581Z,7.30
2023-01-13T03:56:42.255Z,7.30
2023-01-13T03:59:08.985Z,7.30
2023-01-13T04:01:35.806Z,7.30
2023-01-13T04:04:02.735Z,7.30
2023-01-13T04:06:29.528Z,7.30
2023-01-13T04:08:56.361Z,7.30
2023-01-13T04:11:23.095Z,7.30
2023-01-13T04:13:49.807Z,7.30
2023-01-13T04:16:16.583Z,7.30
2023-01-13T04:18:43.311Z,7.30
2023-01-13T04:21:10.036Z,7.40
2023-01-13T04:23:36.841Z,7.40
2023-01-13T04:26:03.525Z,7.40
2023-01-13T04:28:30.233Z,7.50
2023-01-13T04:30:56.982Z,7.60
2023-01-13T04:33:23.747Z,7.60
2023-01-13T04:35:50.481Z,7.50
2023-01-13T04:38:17.151Z,7.50
2023-01-13T04:40:43.839Z,7.40
2023-01-13T04:43:10.567Z,7.40
2023-01-13T04:45:37.335Z,7.40
2023-01-13T04:48:04.041Z,7.30
2023-01-13T04:50:30.764Z,7.30
2023-01-13T04:52:57.542Z,7.30
2023-01-13T04:55:24.268Z,7.30
2023-01-13T04:57:51.018Z,7.20
2023-01-13T05:00:17.802Z,7.20
2023-01-13T05:02:44.554Z,7.20
2023-01-13T05:05:11.306Z,7.20
2023-01-13T05:07:38.033Z,7.20
2023-01-13T05:10:04.993Z,7.20
2023-01-13T05:12:50.181Z,7.20
2023-01-13T05:15:35.711Z,7.20
2023-01-13T05:18:02.446Z,7.20
2023-01-13T05:20:29.208Z,7.20
2023-01-13T05:23:14.552Z,7.10
2023-01-13T05:25:44.002Z,7.20
2023-01-13T05:28:10.931Z,7.20
2023-01-13T05:30:38.043Z,7.10
2023-01-13T05:33:04.727Z,7.10
2023-01-13T05:35:31.470Z,7.10
2023-01-13T05:37:58.166Z,7.10
2023-01-13T05:40:43.393Z,7.10
2023-01-13T05:43:25.288Z,7.10
2023-01-13T05:45:52.114Z,7.10
2023-01-13T05:48:19.200Z,7.10
2023-01-13T05:50:46.107Z,7.10
2023-01-13T05:53:12.895Z,7.10
2023-01-13T05:55:39.793Z,7.10
2023-01-13T05:58:06.449Z,7.20
2023-01-13T06:00:33.185Z,7.10
2023-01-13T06:02:59.900Z,7.10
2023-01-13T06:05:26.697Z,7.10
2023-01-13T06:07:53.368Z,7.10
2023-01-13T06:10:20.038Z,7.10
2023-01-13T06:12:46.759Z,7.10
2023-01-13T06:15:13.447Z,7.10
2023-01-13T06:17:40.133Z,7.10
2023-01-13T06:20:09.233Z,7.10
2023-01-13T06:22:36.528Z,7.10
2023-01-13T06:25:03.326Z,7.10
2023-01-13T06:27:30.359Z,7.10
2023-01-13T06:29:57.276Z,7.20
2023-01-13T06:32:23.991Z,7.10
2023-01-13T06:34:50.671Z,7.10
2023-01-13T06:37:18.043Z,7.10
2023-01-13T06:39:45.013Z,7.10
2023-01-13T06:42:30.539Z,7.10
2023-01-13T06:44:57.249Z,7.20
2023-01-13T06:47:24.036Z,7.20
2023-01-13T06:49:50.761Z,7.20
2023-01-13T06:52:17.497Z,7.20
2023-01-13T06:54:44.213Z,7.20
2023-01-13T06:57:10.902Z,7.20
2023-01-13T06:59:37.652Z,7.20
2023-01-13T07:02:04.534Z,7.20
2023-01-13T07:04:31.421Z,7.20
2023-01-13T07:06:58.160Z,7.20
2023-01-13T07:09:24.849Z,7.20
2023-01-13T07:11:52.848Z,7.30
2023-01-13T07:14:52.130Z,7.30
2023-01-13T07:17:25.152Z,7.40
2023-01-13T07:19:52.189Z,7.40
2023-01-13T07:22:18.971Z,7.50
2023-01-13T07:24:45.691Z,7.50
2023-01-13T07:27:12.536Z,7.50
2023-01-13T07:29:39.767Z,7.50
2023-01-13T07:32:07.828Z,7.50
2023-01-13T07:34:34.632Z,7.50
2023-01-13T07:37:01.344Z,7.40
2023-01-13T07:39:28.093Z,7.40
2023-01-13T07:42:13.477Z,7.40
2023-01-13T07:44:41.192Z,7.40
2023-01-13T07:47:10.465Z,7.40
2023-01-13T07:49:37.195Z,7.40
2023-01-13T07:52:04.104Z,7.30
2023-01-13T07:54:40.283Z,7.30
2023-01-13T07:57:07.586Z,7.30
2023-01-13T07:59:34.302Z,7.30
2023-01-13T08:02:01.257Z,7.20
2023-01-13T08:04:28.112Z,7.30
2023-01-13T08:06:55.259Z,7.30
2023-01-13T08:09:22.004Z,7.30
2023-01-13T08:12:08.663Z,7.40
2023-01-13T08:14:35.589Z,7.40
2023-01-13T08:17:02.349Z,7.40
2023-01-13T08:19:29.028Z,7.40
2023-01-13T08:21:55.732Z,7.50
2023-01-13T08:24:22.554Z,7.50
2023-01-13T08:26:49.270Z,7.40
2023-01-13T08:29:15.999Z,7.40
2023-01-13T08:31:42.744Z,7.40
2023-01-13T08:34:09.498Z,7.40
2023-01-13T08:36:36.271Z,7.40
2023-01-13T08:39:03.004Z,7.40
2023-01-13T08:41:48.402Z,7.40
2023-01-13T08:44:15.280Z,7.50
2023-01-13T08:46:42.027Z,7.50
2023-01-13T08:49:08.779Z,7.50
2023-01-13T08:51:35.514Z,7.50
2023-01-13T08:54:02.489Z,7.50
2023-01-13T08:56:29.253Z,7.50
2023-01-13T08:58:56.006Z,7.50
2023-01-13T09:01:22.809Z,7.50
2023-01-13T09:03:49.630Z,7.50
2023-01-13T09:06:16.292Z,7.50
2023-01-13T09:08:43.026Z,7.50
2023-01-13T09:11:28.291Z,7.50
2023-01-13T09:13:55.012Z,7.50
2023-01-13T09:16:21.722Z,7.60
2023-01-13T09:18:48.448Z,7.60
2023-01-13T09:21:15.183Z,7.60
2023-01-13T09:23:41.925Z,7.60
2023-01-13T09:26:08.649Z,7.60
2023-01-13T09:28:35.346Z,7.60
2023-01-13T09:31:02.171Z,7.70
2023-01-13T09:33:47.620Z,7.70
2023-01-13T09:36:14.384Z,7.70
2023-01-13T09:38:41.119Z,7.70
2023-01-13T09:41:27.935Z,7.80
2023-01-13T09:43:54.660Z,7.80
2023-01-13T09:46:40.317Z,7.80
2023-01-13T09:49:08.085Z,7.90
2023-01-13T09:51:35.266Z,7.90
2023-01-13T09:54:02.245Z,7.90
2023-01-13T09:56:28.979Z,8.00
2023-01-13T09:58:55.745Z,8.00
2023-01-13T10:01:22.489Z,8.10
2023-01-13T10:03:49.509Z,8.20
2023-01-13T10:06:16.705Z,8.20
2023-01-13T10:08:43.435Z,8.20
2023-01-13T10:11:29.015Z,8.20
2023-01-13T10:13:55.746Z,8.20
2023-01-13T10:16:22.493Z,8.30
2023-01-13T10:18:49.252Z,8.30
2023-01-13T10:21:16.009Z,8.30
2023-01-13T10:23:42.810Z,8.30
2023-01-13T10:26:09.598Z,8.30
2023-01-13T10:28:36.363Z,8.40
2023-01-13T10:31:03.080Z,8.40
2023-01-13T10:33:29.911Z,8.40
2023-01-13T10:35:56.684Z,8.40
2023-01-13T10:38:23.475Z,8.50
2023-01-13T10:40:50.194Z,8.50
2023-01-13T10:43:17.151Z,8.60
2023-01-13T10:45:43.886Z,8.60
2023-01-13T10:48:10.614Z,8.60
2023-01-13T10:50:37.348Z,8.70
2023-01-13T10:53:04.163Z,8.80
2023-01-13T10:55:32.152Z,8.80
2023-01-13T10:57:58.889Z,8.80
2023-01-13T11:00:25.605Z,8.90
2023-01-13T11:02:52.344Z,8.90
2023-01-13T11:05:19.113Z,8.90
2023-01-13T11:07:45.886Z,8.90
2023-01-13T11:10:12.553Z,8.90
2023-01-13T11:12:39.311Z,9.00
2023-01-13T11:15:06.125Z,9.00
2023-01-13T11:17:32.861Z,9.00
2023-01-13T11:19:59.631Z,9.00
2023-01-13T11:22:26.356Z,9.00
2023-01-13T11:24:53.117Z,9.10
2023-01-13T11:27:20.032Z,9.10
2023-01-13T11:29:46.708Z,9.10
2023-01-13T11:32:13.594Z,9.10
2023-01-13T11:34:40.353Z,9.20
2023-01-13T11:37:07.187Z,9.20
2023-01-13T11:39:33.969Z,9.30
2023-01-13T11:42:19.215Z,9.30
2023-01-13T11:44:45.928Z,9.30
2023-01-13T11:47:12.665Z,9.40
2023-01-13T11:49:39.529Z,9.40
2023-01-13T11:52:06.531Z,9.50
2023-01-13T11:54:34.110Z,9.50
2023-01-13T11:57:02.080Z,9.60
2023-01-13T11:59:28.765Z,9.70
2023-01-13T12:01:55.541Z,9.80
2023-01-13T12:04:22.365Z,9.80
2023-01-13T12:06:49.457Z,9.80
2023-01-13T12:09:16.215Z,9.80
2023-01-13T12:12:01.472Z,9.90
2023-01-13T12:14:28.252Z,9.90
2023-01-13T12:16:55.035Z,10.00
2023-01-13T12:19:21.808Z,10.00
2023-01-13T12:21:48.559Z,10.00
2023-01-13T12:24:15.275Z,10.00
2023-01-13T12:26:42.079Z,10.00
2023-01-13T12:29:08.805Z,10.10
2023-01-13T12:31:35.541Z,10.10
2023-01-13T12:34:02.247Z,10.10
2023-01-13T12:36:29.002Z,10.10
2023-01-13T12:38:55.682Z,10.10
2023-01-13T12:41:24.637Z,10.10
2023-01-13T12:44:10.171Z,10.10
2023-01-13T12:46:36.945Z,10.00
2023-01-13T12:49:04.800Z,10.00
2023-01-13T12:51:35.803Z,10.00
2023-01-13T12:54:02.519Z,10.00
2023-01-13T12:56:29.529Z,10.00
2023-01-13T12:58:56.222Z,10.00
2023-01-13T13:01:22.974Z,10.00
2023-01-13T13:03:49.920Z,10.00
2023-01-13T13:06:16.709Z,10.00
2023-01-13T13:08:43.409Z,10.00
2023-01-13T13:11:30.097Z,10.00
2023-01-13T13:13:56.884Z,10.00
2023-01-13T13:16:23.673Z,10.10
2023-01-13T13:18:50.469Z,10.10
2023-01-13T13:21:17.159Z,10.10
2023-01-13T13:23:49.771Z,10.20
2023-01-13T13:26:16.745Z,10.20
2023-01-13T13:28:43.416Z,10.20
2023-01-13T13:31:10.159Z,10.20
2023-01-13T13:33:39.004Z,10.20
2023-01-13T13:36:05.790Z,10.20
2023-01-13T13:38:51.369Z,10.10
2023-01-13T13:41:37.237Z,10.10
2023-01-13T13:44:22.808Z,10.10
2023-01-13T13:46:49.879Z,10.00
2023-01-13T13:49:16.608Z,10.00
2023-01-13T13:51:45.161Z,10.00
2023-01-13T13:54:12.085Z,10.10
2023-01-13T13:56:38.761Z,10.10
2023-01-13T13:59:05.512Z,10.10
2023-01-13T14:01:32.341Z,10.20
2023-01-13T14:03:59.063Z,10.20
2023-01-13T14:06:25.797Z,10.20
2023-01-13T14:08:52.455Z,10.30
2023-01-13T14:11:20.588Z,10.20
2023-01-13T14:13:47.312Z,10.20
2023-01-13T14:16:13.979Z,10.30
2023-01-13T14:18:40.725Z,10.30
2023-01-13T14:21:07.475Z,10.30
2023-01-13T14:23:34.306Z,10.30
2023-01-13T14:26:01.005Z,10.30
2023-01-13T14:28:27.985Z,10.30
2023-01-13T14:30:54.697Z,10.30
2023-01-13T14:33:21.482Z,10.40
2023-01-13T14:35:48.167Z,10.40
2023-01-13T14:38:16.044Z,10.40
2023-01-13T14:40:45.775Z,10.40
2023-01-13T14:43:12.479Z,10.50
2023-01-13T14:45:39.194Z,10.50
2023-01-13T14:48:05.910Z,10.50
2023-01-13T14:50:33.941Z,10.40
2023-01-13T14:53:00.820Z,10.40
2023-01-13T14:55:27.627Z,10.40
2023-01-13T14:57:54.361Z,10.40
2023-01-13T15:00:21.393Z,10.30
2023-01-13T15:02:48.297Z,10.40
2023-01-13T15:05:15.060Z,10.30
2023-01-13T15:07:41.761Z,10.30
2023-01-13T15:10:08.420Z,10.30
2023-01-13T15:12:35.897Z,10.20
2023-01-13T15:15:03.578Z,10.20
2023-01-13T15:17:30.366Z,10.20
2023-01-13T15:19:57.097Z,10.10
2023-01-13T15:22:23.961Z,10.10
2023-01-13T15:24:51.126Z,10.00
2023-01-13T15:27:17.879Z,9.90
2023-01-13T15:29:44.568Z,9.90
2023-01-13T15:32:11.288Z,9.80
2023-01-13T15:34:38.203Z,9.80
2023-01-13T15:37:04.922Z,9.70
2023-01-13T15:39:31.822Z,9.60
2023-01-13T15:42:17.420Z,9.60
2023-01-13T15:45:02.933Z,9.50
2023-01-13T15:47:29.663Z,9.50
2023-01-13T15:49:56.383Z,9.40
2023-01-13T15:52:23.140Z,9.40
2023-01-13T15:54:49.951Z,9.30
2023-01-13T15:57:16.666Z,9.30
2023-01-13T15:59:43.433Z,9.30
2023-01-13T16:02:10.127Z,9.20
2023-01-13T16:04:36.849Z,9.20
2023-01-13T16:07:03.540Z,9.20
2023-01-13T16:09:30.290Z,9.20
2023-01-13T16:11:57.326Z,9.20
2023-01-13T16:14:33.104Z,9.20
2023-01-13T16:16:59.907Z,9.10
2023-01-13T16:19:26.565Z,9.10
2023-01-13T16:21:53.288Z,9.00
2023-01-13T16:24:20.028Z,9.00
2023-01-13T16:26:46.734Z,9.00
2023-01-13T16:29:13.465Z,9.00
2023-01-13T16:31:40.268Z,9.00
2023-01-13T16:34:07.150Z,9.00
2023-01-13T16:36:33.874Z,9.00
2023-01-13T16:39:00.609Z,8.90
2023-01-13T16:41:27.400Z,8.80
2023-01-13T16:43:54.150Z,8.80
2023-01-13T16:46:20.897Z,8.80
2023-01-13T16:48:47.645Z,8.80
2023-01-13T16:51:14.444Z,8.70
2023-01-13T16:53:41.195Z,8.70
2023-01-13T16:56:07.904Z,8.80
2023-01-13T16:58:34.657Z,8.80
2023-01-13T17:01:01.471Z,8.70
2023-01-13T17:03:29.896Z,8.70
2023-01-13T17:05:56.637Z,8.70
2023-01-13T17:08:23.367Z,8.70
2023-01-13T17:10:50.093Z,8.70
2023-01-13T17:13:17.468Z,8.70
2023-01-13T17:15:44.189Z,8.70
2023-01-13T17:18:13.353Z,8.60
2023-01-13T17:20:40.285Z,8.50
2023-01-13T17:23:07.035Z,8.50
2023-01-13T17:25:33.777Z,8.50
2023-01-13T17:28:00.483Z,8.40
2023-01-13T17:30:27.228Z,8.40
2023-01-13T17:32:53.945Z,8.30
2023-01-13T17:35:24.717Z,8.30
2023-01-13T17:37:51.655Z,8.30
2023-01-13T17:40:18.380Z,8.20
2023-01-13T17:42:45.123Z,8.20
2023-01-13T17:45:12.595Z,8.20
2023-01-13T17:47:39.394Z,8.10
2023-01-13T17:50:06.137Z,8.10
2023-01-13T17:52:32.917Z,8.10
2023-01-13T17:54:59.644Z,8.00
2023-01-13T17:57:26.351Z,8.00
2023-01-13T17:59:53.107Z,7.90
2023-01-13T18:02:19.878Z,7.90
2023-01-13T18:04:46.727Z,7.90
2023-01-13T18:07:13.393Z,7.80
2023-01-13T18:09:40.261Z,7.80
2023-01-13T18:12:07.028Z,7.80
2023-01-13T18:14:33.783Z,7.80
2023-01-13T18:17:00.618Z,7.70
2023-01-13T18:19:46.238Z,7.70
2023-01-13T18:22:31.618Z,7.70
2023-01-13T18:25:16.919Z,7.70
2023-01-13T18:27:43.640Z,7.60
2023-01-13T18:30:10.322Z,7.70
2023-01-13T18:32:37.336Z,7.60
2023-01-13T18:35:09.775Z,7.60
2023-01-13T18:37:38.704Z,7.60
2023-01-13T18:40:05.560Z,7.50
2023-01-13T18:42:51.049Z,7.50
2023-01-13T18:45:17.749Z,7.50
2023-01-13T18:47:44.412Z,7.40
2023-01-13T18:50:13.791Z,7.40
2023-01-13T18:52:40.950Z,7.40
2023-01-13T18:55:07.687Z,7.40
2023-01-13T18:57:38.268Z,7.40
2023-01-13T19:00:04.961Z,7.40
2023-01-13T19:02:31.881Z,7.40
2023-01-13T19:04:58.640Z,7.30
2023-01-13T19:07:28.597Z,7.30
2023-01-13T19:09:55.746Z,7.30
2023-01-13T19:12:31.105Z,7.30
2023-01-13T19:14:57.877Z,7.30
2023-01-13T19:17:24.612Z,7.20
2023-01-13T19:19:51.692Z,7.30
2023-01-13T19:22:19.534Z,7.20
2023-01-13T19:24:46.299Z,7.20
2023-01-13T19:27:14.467Z,7.20
2023-01-13T19:29:48.788Z,7.20
2023-01-13T19:32:19.156Z,7.20
2023-01-13T19:34:47.747Z,7.10
2023-01-13T19:37:14.568Z,7.10
2023-01-13T19:39:41.326Z,7.10
2023-01-13T19:42:34.392Z,7.10
2023-01-13T19:45:19.640Z,7.10
2023-01-13T19:47:46.409Z,7.10
2023-01-13T19:50:13.682Z,7.10
2023-01-13T19:52:40.620Z,7.10
2023-01-13T19:55:07.321Z,7.10
2023-01-13T19:57:34.045Z,7.10
2023-01-13T20:00:00.772Z,7.10
2023-01-13T20:02:28.279Z,7.10
2023-01-13T20:04:55.982Z,7.10
2023-01-13T20:07:23.711Z,7.00
2023-01-13T20:09:50.756Z,7.00
2023-01-13T20:12:17.535Z,7.00
2023-01-13T20:14:44.604Z,7.00
2023-01-13T20:17:11.258Z,7.00
2023-01-13T20:19:38.018Z,7.00
2023-01-13T20:22:04.722Z,6.90
2023-01-13T20:24:31.655Z,6.90
2023-01-13T20:26:58.443Z,6.90
2023-01-13T20:29:25.180Z,6.90
2023-01-13T20:31:51.945Z,6.90
2023-01-13T20:34:19.164Z,6.90
2023-01-13T20:36:45.974Z,6.80
2023-01-13T20:39:12.658Z,6.80
2023-01-13T20:41:58.306Z,6.80
2023-01-13T20:44:25.046Z,6.80
2023-01-13T20:46:54.474Z,6.80
2023-01-13T20:49:21.260Z,6.70
2023-01-13T20:51:47.999Z,6.70
2023-01-13T20:54:14.748Z,6.70
2023-01-13T20:56:41.472Z,6.70
2023-01-13T20:59:08.202Z,6.70
2023-01-13T21:01:34.939Z,6.70
2023-01-13T21:04:01.720Z,6.70
2023-01-13T21:06:28.479Z,6.60
2023-01-13T21:08:55.224Z,6.70
2023-01-13T21:11:45.084Z,6.60
2023-01-13T21:14:30.483Z,6.60
2023-01-13T21:16:57.224Z,6.60
2023-01-13T21:19:23.879Z,6.60
2023-01-13T21:21:50.661Z,6.60
2023-01-13T21:24:17.434Z,6.60
2023-01-13T21:26:44.147Z,6.60
2023-01-13T21:29:10.907Z,6.60
2023-01-13T21:31:37.727Z,6.60
2023-01-13T21:34:05.159Z,6.60
2023-01-13T21:36:31.984Z,6.50
2023-01-13T21:38:58.819Z,6.60
2023-01-13T21:41:44.168Z,6.60
2023-01-13T21:44:29.718Z,6.60
2023-01-13T21:47:15.124Z,6.50
2023-01-13T21:49:44.419Z,6.50
2023-01-13T21:52:11.294Z,6.50
2023-01-13T21:54:58.009Z,6.50
2023-01-13T21:57:26.715Z,6.60
2023-01-13T21:59:53.913Z,6.50
2023-01-13T22:02:32.094Z,6.60
2023-01-13T22:04:58.920Z,6.50
2023-01-13T22:07:26.587Z,6.60
2023-01-13T22:09:53.394Z,6.60
2023-01-13T22:12:23.609Z,6.60
2023-01-13T22:14:50.363Z,6.60
2023-01-13T22:17:17.789Z,6.60
2023-01-13T22:19:44.579Z,6.60
2023-01-13T22:22:14.377Z,6.60
2023-01-13T22:24:44.117Z,6.60
2023-01-13T22:27:10.837Z,6.60
2023-01-13T22:29:37.801Z,6.60
2023-01-13T22:32:04.826Z,6.60
2023-01-13T22:34:31.670Z,6.70
2023-01-13T22:36:58.415Z,6.70
2023-01-13T22:39:25.146Z,6.70
2023-01-13T22:41:51.884Z,6.70
2023-01-13T22:44:18.655Z,6.70
2023-01-13T22:46:45.371Z,6.80
2023-01-13T22:49:12.103Z,6.70
2023-01-13T22:51:38.783Z,6.80
2023-01-13T22:54:05.543Z,6.80
2023-01-13T22:56:32.227Z,6.80
2023-01-13T22:58:58.931Z,6.80
2023-01-13T23:01:25.819Z,6.90
2023-01-13T23:03:52.617Z,6.90
2023-01-13T23:06:19.410Z,6.90
2023-01-13T23:08:46.118Z,7.00
2023-01-13T23:11:12.844Z,7.00
2023-01-13T23:13:39.690Z,7.00
2023-01-13T23:16:06.765Z,7.10
2023-01-13T23:18:34.369Z,7.10
2023-01-13T23:21:01.515Z,7.10
2023-01-13T23:23:28.680Z,7.10
2023-01-13T23:25:56.789Z,7.20
2023-01-13T23:28:23.968Z,7.20
2023-01-13T23:30:51.845Z,7.20
2023-01-13T23:33:18.718Z,7.20
2023-01-13T23:35:45.563Z,7.20
2023-01-13T23:38:12.455Z,7.30
2023-01-13T23:40:39.279Z,7.30
2023-01-13T23:43:06.019Z,7.30
2023-01-13T23:45:32.766Z,7.30
2023-01-13T23:47:59.518Z,7.40
2023-01-13T23:50:26.229Z,7.40
2023-01-13T23:52:53.482Z,7.40
2023-01-13T23:55:20.211Z,7.40
2023-01-13T23:57:46.920Z,7.50
